Flight Track Log - Related Links

Times and Time Zones

All times are in EDT time to prevent confusion due to time zone crossing. See the EJA929 flight status page for this flight to view local times or setup timezone preferences in your user account.

Time Position Orientation Groundspeed Altitude Reporting Facility
EDT Latitude Longitude Course Direction KTS MPH feet Rate Location/Type
Fri 16:25:53 34.0167 -84.5167 157° South 204 235 3,000  Level Atlanta TRACON
Fri 16:26:00 33.9260 -84.4948 157° South  Level Estimated
Fri 16:26:53 34.0000 -84.4667 112° Southeast 219 252 3,600  Level Atlanta TRACON
Fri 16:27:53 33.9333 -84.4667 180° South 216 249 4,000 400 Climbing Atlanta TRACON
Fri 16:28:53 33.8833 -84.4667 180° South 218 251 4,400 900 Climbing Atlanta TRACON
Fri 16:29:53 33.8167 -84.4667 180° South 229 264 5,800 800 Climbing Atlanta TRACON
Fri 16:30:53 33.7500 -84.4667 180° South 229 264 6,000 150 Climbing Atlanta TRACON
Fri 16:31:53 33.6833 -84.4667 180° South 233 268 6,100 50 Climbing Atlanta TRACON
Fri 16:32:53 33.6000 -84.4833 189° South 297 342 6,100  Level Atlanta TRACON
Fri 16:33:53 33.5333 -84.4833 180° South 284 327 6,100 1,135 Level Atlanta TRACON
Fri 16:35:21 33.4094 -84.4892 182° South 302 348 8,900 2,189 Climbing Atlanta Center
Fri 16:36:21 33.3342 -84.4914 181° South 307 353 11,500 2,750 Climbing Atlanta Center
Fri 16:37:21 33.2675 -84.4339 144° Southeast 292 336 14,400 2,500 Climbing Atlanta Center
Fri 16:38:21 33.2031 -84.3617 137° Southeast 298 343 16,500 1,700 Climbing Atlanta Center
Fri 16:39:21 33.1364 -84.2769 133° Southeast 336 387 17,800 1,150 Climbing Atlanta Center
Fri 16:40:21 33.0658 -84.1753 130° Southeast 378 435 18,800 850 Climbing Atlanta Center
Fri 16:41:21 32.9844 -84.0586 130° Southeast 405 466 19,500 550 Climbing Atlanta Center
Fri 16:42:21 32.9050 -83.9397 128° Southeast 438 504 19,900 400 Climbing Atlanta Center
Fri 16:43:21 32.8233 -83.8189 129° Southeast 460 529 20,300 700 Climbing Atlanta Center
Fri 16:44:21 32.7439 -83.6931 127° Southeast 468 539 21,300 1,000 Climbing Atlanta Center
Fri 16:45:21 32.6619 -83.5725 129° Southeast 468 539 22,300 850 Climbing Atlanta Center
Fri 16:46:21 32.5781 -83.4472 128° Southeast 468 539 23,000 154 Climbing Atlanta Center
Fri 16:49:54 32.2689 -82.9933 129° Southeast 499 574 23,000  Level Jacksonville Center
Fri 16:50:54 32.1811 -82.8631 129° Southeast 499 574 23,000 -200 Level Jacksonville Center
Fri 16:51:54 32.0956 -82.7406 129° Southeast 499 574 22,600 -500 Descending Jacksonville Center
Fri 16:52:54 32.0181 -82.6281 129° Southeast 494 568 22,000 -1,050 Descending Jacksonville Center
Fri 16:53:54 31.9322 -82.5033 129° Southeast 494 568 20,500 -1,750 Descending Jacksonville Center
Fri 16:54:54 31.8419 -82.3889 133° Southeast 488 562 18,500 -2,250 Descending Jacksonville Center
Fri 16:55:54 31.7350 -82.2942 143° Southeast 470 541 16,000 -2,300 Descending Jacksonville Center
Fri 16:56:54 31.6511 -82.2117 140° Southeast 411 473 13,900 -1,950 Descending Jacksonville Center
Fri 16:57:54 31.5942 -82.1339 131° Southeast 368 423 12,100 -2,300 Descending Jacksonville Center
Fri 16:58:54 31.5372 -82.0369 125° Southeast 330 380 9,300 -2,550 Descending Jacksonville Center
Fri 16:59:54 31.4950 -81.9619 123° Southeast 297 342 7,000 -2,350 Descending Jacksonville Center
Fri 17:00:54 31.4528 -81.8989 128° Southeast 273 314 4,600 -2,150 Descending Jacksonville Center
Fri 17:01:54 31.4000 -81.8361 135° Southeast 268 308 2,700 -1,300 Descending Jacksonville Center
Fri 17:02:54 31.3472 -81.7736 135° Southeast 248 285 2,000 -350 Descending Jacksonville Center
Fri 17:03:54 31.2906 -81.7450 157° South 212 244 2,000  Level Jacksonville Center
Fri 17:04:54 31.2342 -81.7189 158° South 221 254 2,000  Level Jacksonville Center
Fri 17:05:54 31.1900 -81.6831 145° Southeast 213 245 2,000  Level Jacksonville Center
Fri 17:06:54 31.1600 -81.6181 118° Southeast 202 232 2,000 -150 Level Jacksonville Center
Fri 17:07:54 31.1344 -81.5625 118° Southeast 202 232 1,700 -150 Descending Jacksonville Center
Fri 17:08:54 31.1089 -81.5069 118° Southeast 196 226 1,700 50 Level Jacksonville Center
Fri 17:09:54 31.0956 -81.4539 106° East 190 219 1,800 100 Climbing Jacksonville Center

Login

Don't have an account? Register now (free) for customized features, flight alerts, and more!